Time;durP1;ratioP1;P1;durP2;ratioP2;P2;SDS_P1;SDS_P2;PMS_P1;PMS_P2;Temp;Humidity;BMP_temperature;BMP_pressure;BME280_temperature;BME280_humidity;BME280_pressure;Samples;Min_cycle;Max_cycle;Signal;HPM_P1;HPM_P2
2023/02/15 00:00:15;;;;;;;35.67;19.75;;;;;;;3.67;100.00;101503.91;5036107;28;20037;-72
2023/02/15 00:02:40;;;;;;;34.13;19.40;;;;;;;3.64;100.00;101510.69;5032896;28;20041;-72
2023/02/15 00:05:06;;;;;;;34.80;19.52;;;;;;;3.63;100.00;101502.69;5036138;28;20049;-72
2023/02/15 00:07:32;;;;;;;35.08;19.10;;;;;;;3.62;100.00;101501.84;5037371;28;20035;-72
2023/02/15 00:09:57;;;;;;;34.90;19.17;;;;;;;3.61;100.00;101502.91;5020699;28;20029;-72
2023/02/15 00:12:23;;;;;;;30.92;17.75;;;;;;;3.62;100.00;101507.31;5039508;28;20033;-71
2023/02/15 00:14:48;;;;;;;34.08;17.83;;;;;;;3.63;100.00;101509.03;5025413;28;20041;-71
2023/02/15 00:17:14;;;;;;;34.97;19.02;;;;;;;3.59;100.00;101502.28;5016047;28;20045;-72
2023/02/15 00:19:39;;;;;;;32.28;18.80;;;;;;;3.61;100.00;101500.16;5037046;28;20033;-72
2023/02/15 00:22:05;;;;;;;33.65;18.13;;;;;;;3.57;100.00;101493.44;5018603;28;20024;-71
2023/02/15 00:24:31;;;;;;;32.05;18.48;;;;;;;3.56;100.00;101494.50;5025268;28;20574;-72
2023/02/15 00:26:56;;;;;;;36.03;18.92;;;;;;;3.56;100.00;101497.25;5035532;28;20022;-72
2023/02/15 00:29:22;;;;;;;32.40;17.77;;;;;;;3.59;100.00;101491.28;5036848;28;20029;-72
2023/02/15 00:31:48;;;;;;;29.90;17.23;;;;;;;3.57;100.00;101486.03;5035485;28;20390;-71
2023/02/15 00:34:15;;;;;;;31.17;17.77;;;;;;;3.56;100.00;101484.34;5035747;28;20029;-72
2023/02/15 00:36:40;;;;;;;31.20;18.50;;;;;;;3.53;100.00;101478.47;5035476;28;20045;-71
2023/02/15 00:39:07;;;;;;;29.95;17.08;;;;;;;3.54;100.00;101478.25;5024804;28;20037;-72
2023/02/15 00:41:32;;;;;;;31.33;17.58;;;;;;;3.52;100.00;101474.88;5050832;28;20544;-71
2023/02/15 00:43:58;;;;;;;33.45;17.63;;;;;;;3.52;100.00;101469.38;5057653;28;20033;-72
2023/02/15 00:46:23;;;;;;;32.42;17.65;;;;;;;3.51;100.00;101473.22;5010355;28;20657;-72
2023/02/15 00:48:49;;;;;;;32.03;17.88;;;;;;;3.50;100.00;101466.00;5007016;28;20021;-71
2023/02/15 00:51:14;;;;;;;32.90;17.60;;;;;;;3.51;100.00;101475.97;5038946;28;20433;-71
2023/02/15 00:53:40;;;;;;;28.92;17.23;;;;;;;3.50;100.00;101470.69;5037704;28;20037;-72
2023/02/15 00:56:05;;;;;;;32.25;17.80;;;;;;;3.48;100.00;101465.44;5035978;28;20032;-72
2023/02/15 00:58:31;;;;;;;33.85;18.38;;;;;;;3.46;100.00;101464.81;5036254;28;20029;-72
2023/02/15 01:01:02;;;;;;;32.15;18.02;;;;;;;3.43;100.00;101468.00;5030775;28;20065;-71
2023/02/15 01:03:27;;;;;;;27.73;17.67;;;;;;;3.44;100.00;101471.56;5035048;28;20029;-72
2023/02/15 01:05:53;;;;;;;29.65;17.73;;;;;;;3.41;100.00;101467.38;5034297;28;20083;-72
2023/02/15 01:08:18;;;;;;;29.15;17.20;;;;;;;3.40;100.00;101464.84;5008870;28;20037;-72
2023/02/15 01:10:46;;;;;;;29.83;16.60;;;;;;;3.41;100.00;101466.53;5015140;28;20539;-72
2023/02/15 01:13:11;;;;;;;29.98;18.40;;;;;;;3.38;100.00;101462.31;4992833;28;20022;-71
2023/02/15 01:15:37;;;;;;;32.13;17.35;;;;;;;3.38;100.00;101461.50;5051063;28;20059;-72
2023/02/15 01:18:02;;;;;;;31.75;17.70;;;;;;;3.31;100.00;101459.59;5046391;28;20056;-72
2023/02/15 01:20:28;;;;;;;29.80;17.70;;;;;;;3.31;100.00;101459.59;5035914;28;20061;-72
2023/02/15 01:22:53;;;;;;;36.05;18.92;;;;;;;3.29;100.00;101456.28;5035902;28;20029;-72
2023/02/15 01:25:20;;;;;;;31.83;17.88;;;;;;;3.29;100.00;101458.19;5030394;28;20051;-72
2023/02/15 01:27:45;;;;;;;31.45;18.58;;;;;;;3.31;100.00;101456.03;5024219;28;20022;-72
2023/02/15 01:30:11;;;;;;;31.45;16.90;;;;;;;3.29;100.00;101458.19;5035596;28;20067;-72
2023/02/15 01:32:37;;;;;;;31.42;17.48;;;;;;;3.25;100.00;101455.03;5024594;28;20481;-71
2023/02/15 01:35:02;;;;;;;31.27;17.42;;;;;;;3.26;100.00;101453.97;5036321;28;20041;-72
2023/02/15 01:37:30;;;;;;;32.72;18.33;;;;;;;3.27;100.00;101457.56;5034197;28;20124;-72
2023/02/15 01:39:55;;;;;;;32.20;18.40;;;;;;;3.24;100.00;101453.34;5004356;28;20049;-71
2023/02/15 01:42:24;;;;;;;29.25;16.65;;;;;;;3.22;100.00;101454.63;5055757;28;20028;-71
2023/02/15 01:44:56;;;;;;;31.85;18.23;;;;;;;3.17;100.00;101452.53;5055401;28;20108;-72
2023/02/15 01:47:39;;;;;;;32.70;17.90;;;;;;;3.16;100.00;101439.88;5055511;28;20497;-72
2023/02/15 01:50:16;;;;;;;33.13;18.55;;;;;;;3.12;100.00;101446.88;5040250;28;20596;-72
2023/02/15 01:52:46;;;;;;;32.38;18.40;;;;;;;3.13;100.00;101443.91;5037498;28;20084;-72
2023/02/15 01:55:12;;;;;;;31.15;18.40;;;;;;;3.12;100.00;101444.13;5023233;28;20029;-72
2023/02/15 01:57:38;;;;;;;31.85;17.45;;;;;;;3.07;100.00;101454.94;5016696;28;20032;-71
2023/02/15 02:00:04;;;;;;;33.10;18.85;;;;;;;3.07;100.00;101443.97;5028655;28;20021;-72
2023/02/15 02:02:29;;;;;;;32.08;18.42;;;;;;;3.08;100.00;101451.13;5035261;28;20552;-72
2023/02/15 02:04:58;;;;;;;30.17;18.98;;;;;;;3.02;100.00;101441.06;5025270;28;20030;-72
2023/02/15 02:07:27;;;;;;;34.92;20.23;;;;;;;3.00;100.00;101443.16;5001641;28;20385;-71
2023/02/15 02:09:52;;;;;;;35.95;19.67;;;;;;;3.01;100.00;101440.22;5034868;28;20025;-71
2023/02/15 02:12:18;;;;;;;34.53;20.38;;;;;;;2.98;100.00;101442.53;5038560;28;20040;-71
2023/02/15 02:14:43;;;;;;;37.90;21.20;;;;;;;2.94;100.00;101435.81;5023499;28;20033;-71
2023/02/15 02:17:32;;;;;;;35.40;20.15;;;;;;;2.91;100.00;101431.63;5046635;28;20037;-72
2023/02/15 02:20:17;;;;;;;35.10;21.23;;;;;;;2.91;100.00;101435.19;5034098;28;20039;-71
2023/02/15 02:23:01;;;;;;;37.67;21.27;;;;;;;2.90;100.00;101429.94;5033962;28;20105;-72
2023/02/15 02:25:58;;;;;;;35.70;20.83;;;;;;;2.87;100.00;101433.97;5034823;28;20022;-71
2023/02/15 02:28:54;;;;;;;37.78;21.23;;;;;;;2.87;100.00;101423.00;5033869;28;20037;-72
2023/02/15 02:31:40;;;;;;;38.28;21.50;;;;;;;2.84;100.00;101415.22;5033656;28;20470;-72
2023/02/15 02:34:16;;;;;;;37.20;21.75;;;;;;;2.82;100.00;101417.31;5027409;28;20043;-72
2023/02/15 02:36:49;;;;;;;37.50;20.75;;;;;;;2.81;100.00;101414.78;5053511;28;20037;-71
2023/02/15 02:39:33;;;;;;;40.28;21.55;;;;;;;2.79;100.00;101405.97;5001392;28;20131;-71
2023/02/15 02:42:17;;;;;;;34.80;21.05;;;;;;;2.77;100.00;101408.06;5053537;28;20036;-72
2023/02/15 02:44:44;;;;;;;36.30;20.77;;;;;;;2.74;100.00;101400.28;5054791;28;20040;-71
2023/02/15 02:47:14;;;;;;;34.63;20.40;;;;;;;2.71;100.00;101407.06;5031405;28;20048;-71
2023/02/15 02:49:41;;;;;;;35.22;21.77;;;;;;;2.73;100.00;101404.06;5046164;28;20096;-72
2023/02/15 02:52:40;;;;;;;37.95;21.77;;;;;;;2.72;100.00;101405.13;5029639;28;20512;-72
2023/02/15 02:55:08;;;;;;;38.83;21.23;;;;;;;2.68;100.00;101404.75;5038476;28;20071;-72
2023/02/15 02:57:34;;;;;;;36.03;20.52;;;;;;;2.65;100.00;101402.44;5038559;28;20440;-71
2023/02/15 02:59:59;;;;;;;37.30;21.73;;;;;;;2.63;100.00;101404.56;5025233;28;20029;-71
2023/02/15 03:02:28;;;;;;;40.05;21.10;;;;;;;2.61;100.00;101401.19;5035221;28;20039;-72
2023/02/15 03:04:58;;;;;;;35.22;20.00;;;;;;;2.57;100.00;101400.81;5046308;28;20104;-71
2023/02/15 03:07:25;;;;;;;34.88;20.73;;;;;;;2.56;100.00;101401.00;5037262;28;20740;-71
2023/02/15 03:09:54;;;;;;;35.92;20.95;;;;;;;2.55;100.00;101400.16;5037525;28;20034;-71
2023/02/15 03:12:26;;;;;;;40.13;21.02;;;;;;;2.53;100.00;101407.75;5037786;28;20033;-72
2023/02/15 03:14:53;;;;;;;38.60;21.63;;;;;;;2.58;100.00;101407.13;5037075;28;20466;-71
2023/02/15 03:17:20;;;;;;;37.45;21.10;;;;;;;2.49;100.00;101398.31;5049314;28;20044;-72
2023/02/15 03:19:45;;;;;;;35.38;20.83;;;;;;;2.50;100.00;101396.41;5020659;28;20021;-72
2023/02/15 03:22:30;;;;;;;39.20;21.83;;;;;;;2.47;100.00;101395.78;5040822;28;20390;-71
2023/02/15 03:25:19;;;;;;;39.60;21.05;;;;;;;2.45;100.00;101391.56;5031727;28;20068;-71
2023/02/15 03:27:47;;;;;;;34.97;20.85;;;;;;;2.42;100.00;101389.25;5026151;28;20036;-71
2023/02/15 03:30:12;;;;;;;34.75;21.23;;;;;;;2.38;100.00;101386.13;5038217;28;20076;-71
2023/02/15 03:32:38;;;;;;;34.40;19.15;;;;;;;2.37;100.00;101391.84;5007280;28;20560;-72
2023/02/15 03:35:04;;;;;;;37.13;21.67;;;;;;;2.32;100.00;101387.00;5056626;28;20032;-71
2023/02/15 03:37:36;;;;;;;34.83;21.00;;;;;;;2.32;100.00;101384.25;5040088;28;20037;-71
2023/02/15 03:43:09;;;;;;;35.50;20.92;;;;;;;2.27;100.00;101385.97;5056402;28;20100;-71
2023/02/15 03:45:34;;;;;;;36.50;21.15;;;;;;;2.24;100.00;101387.25;5024596;28;20043;-71
2023/02/15 03:48:00;;;;;;;34.53;20.45;;;;;;;2.29;100.00;101389.34;5003613;28;20018;-71
2023/02/15 03:53:18;;;;;;;35.60;20.13;;;;;;;2.25;100.00;101388.91;5038891;28;20051;-72
2023/02/15 03:55:47;;;;;;;36.33;20.48;;;;;;;2.25;100.00;101386.19;5025971;28;20068;-72
2023/02/15 04:03:49;;;;;;;33.92;20.20;;;;;;;2.25;100.00;101375.22;5036233;28;20044;-71
2023/02/15 04:06:15;;;;;;;33.67;18.97;;;;;;;2.26;100.00;101381.53;5036173;28;20030;-72
2023/02/15 04:11:24;;;;;;;28.70;17.48;;;;;;;2.28;100.00;101372.03;5040455;28;20689;-71
2023/02/15 04:13:56;;;;;;;30.98;18.02;;;;;;;2.22;100.00;101371.00;5036934;28;20038;-72
2023/02/15 04:16:22;;;;;;;32.55;19.05;;;;;;;2.22;100.00;101375.66;5029328;28;20107;-72
2023/02/15 04:27:00;;;;;;;30.85;17.55;;;;;;;2.12;100.00;101375.28;5040388;28;20032;-71
2023/02/15 04:29:26;;;;;;;30.17;18.13;;;;;;;2.16;100.00;101382.84;5019309;28;20034;-72
2023/02/15 04:31:52;;;;;;;32.70;17.85;;;;;;;2.14;100.00;101382.22;5036814;28;20022;-71
2023/02/15 04:34:17;;;;;;;31.83;18.15;;;;;;;2.10;100.00;101383.72;5036955;28;20064;-71
2023/02/15 04:36:43;;;;;;;32.65;18.60;;;;;;;2.08;100.00;101379.50;5036635;28;20418;-71
2023/02/15 04:39:08;;;;;;;33.05;18.20;;;;;;;2.07;100.00;101383.31;5035372;28;20033;-71
2023/02/15 04:41:34;;;;;;;32.88;18.40;;;;;;;2.07;100.00;101375.09;5019779;28;20111;-72
2023/02/15 04:44:00;;;;;;;33.38;18.65;;;;;;;2.04;100.00;101381.84;5019272;28;20029;-71
2023/02/15 04:46:26;;;;;;;32.60;18.15;;;;;;;2.04;100.00;101383.75;5035625;28;20462;-71
2023/02/15 04:48:51;;;;;;;34.63;18.90;;;;;;;2.05;100.00;101379.94;5040499;28;20094;-71
2023/02/15 04:51:17;;;;;;;33.42;18.25;;;;;;;2.04;100.00;101370.91;5040126;28;20057;-71
2023/02/15 04:53:42;;;;;;;31.73;18.02;;;;;;;1.97;100.00;101373.63;5036413;28;20021;-71
2023/02/15 04:56:08;;;;;;;33.63;18.75;;;;;;;1.97;100.00;101383.75;5034718;28;20030;-71
2023/02/15 04:58:34;;;;;;;31.45;18.25;;;;;;;1.97;100.00;101372.81;5035133;28;20041;-71
2023/02/15 05:01:00;;;;;;;29.92;18.23;;;;;;;1.93;100.00;101377.88;5014939;28;20088;-71
2023/02/15 05:03:25;;;;;;;33.65;18.38;;;;;;;1.95;100.00;101369.44;5024350;28;20037;-71
2023/02/15 05:05:51;;;;;;;33.35;17.98;;;;;;;1.94;100.00;101376.81;5017304;28;20029;-72
2023/02/15 05:08:16;;;;;;;32.75;18.63;;;;;;;1.92;100.00;101370.72;5034586;28;20029;-72
2023/02/15 05:10:42;;;;;;;34.17;19.10;;;;;;;1.88;100.00;101368.63;5041069;28;20086;-71
2023/02/15 05:13:07;;;;;;;32.92;18.13;;;;;;;1.89;100.00;101370.28;5036113;28;20040;-71
2023/02/15 05:15:33;;;;;;;32.42;18.38;;;;;;;1.90;100.00;101375.56;5035874;28;20412;-71
2023/02/15 05:17:58;;;;;;;35.50;19.15;;;;;;;1.85;100.00;101380.00;5045803;28;20040;-71
2023/02/15 05:20:24;;;;;;;34.20;19.38;;;;;;;1.87;100.00;101373.28;5034713;28;20033;-71
2023/02/15 05:22:53;;;;;;;32.38;18.58;;;;;;;1.83;100.00;101366.53;5023910;28;20036;-71
2023/02/15 05:28:21;;;;;;;31.30;18.67;;;;;;;1.79;100.00;101368.03;5034921;28;20025;-71
2023/02/15 05:30:48;;;;;;;29.63;17.83;;;;;;;1.78;100.00;101369.94;5020814;28;20108;-71
2023/02/15 05:33:13;;;;;;;27.55;16.50;;;;;;;1.78;100.00;101372.66;5035719;28;20386;-72
2023/02/15 05:35:39;;;;;;;30.73;18.05;;;;;;;1.78;100.00;101369.94;5034565;28;20037;-72
2023/02/15 05:38:04;;;;;;;28.23;16.67;;;;;;;1.77;100.00;101357.28;5034709;28;20390;-71
2023/02/15 05:40:30;;;;;;;29.25;17.05;;;;;;;1.82;100.00;101364.00;5034070;28;20061;-71
2023/02/15 05:42:56;;;;;;;35.53;18.67;;;;;;;1.76;100.00;101366.56;5017701;28;20036;-72
2023/02/15 05:45:21;;;;;;;32.47;18.05;;;;;;;1.77;100.00;101357.28;5034393;28;20701;-71
2023/02/15 05:47:47;;;;;;;28.83;17.27;;;;;;;1.75;100.00;101355.81;5035508;28;20052;-71
2023/02/15 05:50:12;;;;;;;30.77;18.40;;;;;;;1.74;100.00;101359.59;5042696;28;20661;-71
2023/02/15 05:52:38;;;;;;;30.05;18.17;;;;;;;1.77;100.00;101364.66;5037687;28;20374;-72
2023/02/15 05:55:05;;;;;;;29.85;17.13;;;;;;;1.78;100.00;101363.59;5033838;28;20445;-71
2023/02/15 05:57:30;;;;;;;30.23;17.17;;;;;;;1.74;100.00;101363.19;5034454;28;20033;-71
2023/02/15 05:59:56;;;;;;;30.08;18.63;;;;;;;1.79;100.00;101370.75;5033943;28;20041;-72
2023/02/15 06:02:21;;;;;;;30.42;17.13;;;;;;;1.75;100.00;101372.22;5034012;28;20026;-72
2023/02/15 06:04:47;;;;;;;32.72;18.50;;;;;;;1.73;100.00;101377.94;4991451;28;20029;-72
2023/02/15 06:07:12;;;;;;;40.85;21.77;;;;;;;1.76;100.00;101377.50;5047660;28;20029;-72
2023/02/15 06:09:37;;;;;;;39.67;21.65;;;;;;;1.77;100.00;101378.34;5036891;28;20021;-71
2023/02/15 06:12:03;;;;;;;41.65;21.77;;;;;;;1.77;100.00;101375.59;5040321;28;20426;-71
2023/02/15 06:14:28;;;;;;;41.53;21.75;;;;;;;1.77;100.00;101386.56;5034054;28;20031;-72
2023/02/15 06:16:54;;;;;;;40.05;21.85;;;;;;;1.77;100.00;101372.88;5030595;28;20397;-72
2023/02/15 06:19:20;;;;;;;42.33;21.30;;;;;;;1.76;100.00;101382.16;5005695;28;20035;-72
2023/02/15 06:21:46;;;;;;;41.78;22.38;;;;;;;1.75;100.00;101380.44;5054358;28;20055;-72
2023/02/15 06:24:12;;;;;;;40.22;22.10;;;;;;;1.78;100.00;101382.75;5054735;28;20426;-71
2023/02/15 06:26:37;;;;;;;40.78;24.05;;;;;;;1.74;100.00;101385.09;5037334;28;20025;-71
2023/02/15 06:29:03;;;;;;;43.35;22.83;;;;;;;1.76;100.00;101383.00;5053775;28;20090;-71
2023/02/15 06:31:28;;;;;;;44.15;22.70;;;;;;;1.76;100.00;101383.00;5053633;28;20032;-71
2023/02/15 06:34:00;;;;;;;41.40;23.58;;;;;;;1.74;100.00;101389.72;5054730;28;20033;-71
2023/02/15 06:36:29;;;;;;;43.28;23.33;;;;;;;1.70;100.00;101389.31;5024101;28;20059;-72
2023/02/15 06:38:55;;;;;;;37.28;22.90;;;;;;;1.72;100.00;101389.09;5034575;28;20039;-71
2023/02/15 06:41:20;;;;;;;41.17;23.02;;;;;;;1.71;100.00;101390.16;5011900;28;20101;-72
2023/02/15 06:43:46;;;;;;;48.55;24.73;;;;;;;1.68;100.00;101399.66;5033698;28;20026;-72
2023/02/15 06:46:11;;;;;;;42.13;24.13;;;;;;;1.68;100.00;101407.03;5033514;28;20033;-71
2023/02/15 06:48:37;;;;;;;42.78;22.90;;;;;;;1.69;100.00;101408.69;5024681;28;20028;-72
2023/02/15 06:51:02;;;;;;;40.13;22.95;;;;;;;1.66;100.00;101414.59;5039581;28;20033;-71
2023/02/15 06:53:28;;;;;;;42.05;22.63;;;;;;;1.66;100.00;101414.59;5035254;28;20389;-72
2023/02/15 06:56:00;;;;;;;39.17;21.00;;;;;;;1.65;100.00;101421.16;5034427;28;20030;-71
2023/02/15 06:58:26;;;;;;;33.55;19.73;;;;;;;1.62;100.00;101419.66;5034959;28;20048;-71
2023/02/15 07:00:51;;;;;;;36.83;20.73;;;;;;;1.61;100.00;101406.19;5017108;28;20033;-71
2023/02/15 07:03:17;;;;;;;33.72;19.30;;;;;;;1.60;100.00;101421.78;5033694;28;20036;-72
2023/02/15 07:05:43;;;;;;;35.40;19.52;;;;;;;1.59;100.00;101421.97;5034470;28;20022;-71
2023/02/15 07:08:09;;;;;;;34.40;18.45;;;;;;;1.57;100.00;101424.94;5021142;28;20030;-71
2023/02/15 07:10:34;;;;;;;34.58;19.10;;;;;;;1.56;100.00;101425.97;5046385;28;20040;-72
2023/02/15 07:12:59;;;;;;;31.30;17.55;;;;;;;1.53;100.00;101430.00;5033394;28;20033;-71
2023/02/15 07:15:25;;;;;;;31.40;18.05;;;;;;;1.53;100.00;101426.41;5029570;28;20032;-71
2023/02/15 07:17:50;;;;;;;31.23;18.20;;;;;;;1.51;100.00;101432.09;5020285;28;20048;-71
2023/02/15 07:20:21;;;;;;;31.20;17.30;;;;;;;1.51;100.00;101429.38;5054378;28;20103;-71
2023/02/15 07:22:46;;;;;;;30.27;17.02;;;;;;;1.51;100.00;101426.63;4999898;28;20017;-71
2023/02/15 07:25:12;;;;;;;30.65;17.17;;;;;;;1.51;100.00;101428.53;5052836;28;20052;-72
2023/02/15 07:27:38;;;;;;;29.60;16.60;;;;;;;1.50;100.00;101430.41;5054385;28;20033;-71
2023/02/15 07:30:04;;;;;;;30.40;17.45;;;;;;;1.49;100.00;101426.00;5054228;28;20060;-72
2023/02/15 07:32:30;;;;;;;28.58;16.83;;;;;;;1.49;100.00;101431.47;5055467;28;20036;-72
2023/02/15 07:34:56;;;;;;;30.63;16.58;;;;;;;1.51;100.00;101434.00;5040046;28;20029;-72
2023/02/15 07:37:21;;;;;;;30.90;17.13;;;;;;;1.52;100.00;101438.41;5056442;28;20036;-72
2023/02/15 07:39:47;;;;;;;27.80;15.75;;;;;;;1.52;100.00;101432.94;5023030;28;20068;-72
2023/02/15 07:42:12;;;;;;;28.40;16.38;;;;;;;1.54;100.00;101433.56;5057720;28;20040;-72
2023/02/15 07:44:38;;;;;;;27.75;16.60;;;;;;;1.49;100.00;101447.88;5023339;28;20033;-71
2023/02/15 07:47:03;;;;;;;31.98;16.60;;;;;;;1.49;100.00;101449.78;5056397;28;20033;-71
2023/02/15 07:49:29;;;;;;;32.47;16.77;;;;;;;1.46;100.00;101434.63;5047117;28;20037;-71
2023/02/15 07:51:54;;;;;;;31.42;16.75;;;;;;;1.51;100.00;101440.31;5037841;28;20030;-71
2023/02/15 07:54:20;;;;;;;29.60;15.82;;;;;;;1.51;100.00;101448.53;5040976;28;20030;-72
2023/02/15 07:56:45;;;;;;;28.73;16.15;;;;;;;1.51;100.00;101455.91;5019701;28;20040;-71
2023/02/15 07:59:11;;;;;;;28.10;16.13;;;;;;;1.52;100.00;101457.59;5030776;28;20390;-71
2023/02/15 08:01:37;;;;;;;32.28;16.98;;;;;;;1.54;100.00;101466.44;5024004;28;20033;-72
2023/02/15 08:04:04;;;;;;;28.60;16.23;;;;;;;1.54;100.00;101461.78;5030154;28;20072;-71
2023/02/15 08:06:30;;;;;;;28.92;16.00;;;;;;;1.55;100.00;101458.00;5037467;28;20112;-72
2023/02/15 08:08:56;;;;;;;28.85;15.70;;;;;;;1.59;100.00;101466.66;5030331;28;20036;-72
2023/02/15 08:11:32;;;;;;;28.83;16.70;;;;;;;1.60;100.00;101459.28;5042189;28;20562;-71
2023/02/15 08:14:04;;;;;;;29.65;17.23;;;;;;;1.60;100.00;101453.78;5040205;28;20029;-71
2023/02/15 08:16:30;;;;;;;32.88;16.98;;;;;;;1.65;100.00;101462.22;5057071;28;20037;-71
2023/02/15 08:18:57;;;;;;;29.15;16.10;;;;;;;1.68;100.00;101450.84;5022714;28;20041;-72
2023/02/15 08:21:22;;;;;;;31.83;16.77;;;;;;;1.77;100.00;101453.13;5035881;28;20021;-72
2023/02/15 08:23:48;;;;;;;28.42;15.77;;;;;;;1.84;100.00;101453.13;5019100;28;20030;-71
2023/02/15 08:26:13;;;;;;;30.98;17.17;;;;;;;1.94;100.00;101455.44;5037091;28;20048;-71
2023/02/15 08:28:40;;;;;;;27.33;16.08;;;;;;;2.03;100.00;101447.81;5032437;28;20126;-72
2023/02/15 08:31:09;;;;;;;29.92;16.73;;;;;;;2.13;100.00;101456.44;5036860;28;20033;-72
2023/02/15 08:33:36;;;;;;;29.00;16.65;;;;;;;2.26;100.00;101463.75;5036859;28;20375;-72
2023/02/15 08:36:08;;;;;;;26.65;15.90;;;;;;;2.37;100.00;101463.13;5035626;28;20051;-72
2023/02/15 08:38:33;;;;;;;27.58;15.98;;;;;;;2.51;100.00;101466.63;5035489;28;20095;-71
2023/02/15 08:41:13;;;;;;;29.13;16.27;;;;;;;2.63;100.00;101463.00;5048254;28;20124;-72
2023/02/15 08:43:39;;;;;;;27.92;15.75;;;;;;;2.77;100.00;101466.50;5055862;28;20385;-72
2023/02/15 08:46:05;;;;;;;27.85;15.48;;;;;;;2.91;100.00;101473.59;5056575;28;20040;-72
2023/02/15 08:48:30;;;;;;;28.80;15.93;;;;;;;3.04;100.00;101474.63;5054242;28;20029;-72
2023/02/15 08:50:56;;;;;;;28.00;15.80;;;;;;;3.18;100.00;101472.63;5036688;28;20036;-72
2023/02/15 08:53:21;;;;;;;28.52;16.10;;;;;;;3.32;100.00;101469.56;5034707;28;20036;-72
2023/02/15 08:55:54;;;;;;;24.45;15.32;;;;;;;3.47;100.00;101471.97;5034693;28;20083;-72
2023/02/15 08:58:20;;;;;;;;;;;;;;;3.64;100.00;101472.25;5035703;28;20029;-72
2023/02/15 09:00:45;;;;;;;28.45;16.80;;;;;;;3.80;100.00;101468.09;5036283;28;19916;-72
2023/02/15 09:03:11;;;;;;;29.27;15.98;;;;;;;3.99;100.00;101468.97;5035169;28;20041;-72
2023/02/15 09:05:36;;;;;;;26.65;16.25;;;;;;;4.16;100.00;101461.81;5036319;28;20030;-72
2023/02/15 09:08:02;;;;;;;30.52;18.42;;;;;;;4.32;100.00;101467.75;5040419;28;20029;-72
2023/02/15 09:10:27;;;;;;;31.08;17.75;;;;;;;4.50;100.00;101465.00;5055010;28;20036;-72
2023/02/15 09:12:53;;;;;;;33.05;18.52;;;;;;;4.66;100.00;101464.38;5018081;28;20036;-72
2023/02/15 09:15:18;;;;;;;30.60;17.95;;;;;;;4.81;100.00;101466.72;5035923;28;20025;-72
2023/02/15 09:17:44;;;;;;;32.05;17.95;;;;;;;4.96;100.00;101469.06;5046696;28;20498;-72
2023/02/15 09:20:09;;;;;;;29.98;18.23;;;;;;;5.13;100.00;101475.59;5036053;28;20037;-72
2023/02/15 09:22:35;;;;;;;28.63;17.40;;;;;;;5.32;100.00;101472.75;5035017;28;20029;-72
2023/02/15 09:25:00;;;;;;;30.30;18.02;;;;;;;5.49;100.00;101473.78;5031526;28;20079;-72
2023/02/15 09:27:26;;;;;;;31.25;18.05;;;;;;;5.64;100.00;101464.22;5034560;28;20017;-72
2023/02/15 09:29:51;;;;;;;30.17;17.50;;;;;;;5.81;100.00;101465.16;5028052;28;20033;-72
2023/02/15 09:32:17;;;;;;;30.73;18.83;;;;;;;5.94;100.00;101462.22;5035817;28;20026;-72
2023/02/15 09:34:42;;;;;;;30.83;18.60;;;;;;;6.10;100.00;101473.59;5034516;28;20026;-72
2023/02/15 09:37:08;;;;;;;32.22;18.42;;;;;;;6.23;100.00;101479.69;5034422;28;20424;-72
2023/02/15 09:39:38;;;;;;;32.03;18.60;;;;;;;6.37;100.00;101473.91;5035235;28;20057;-72
2023/02/15 09:42:14;;;;;;;33.10;19.90;;;;;;;6.51;100.00;101474.50;5041701;28;20039;-72
2023/02/15 09:44:48;;;;;;;34.20;18.30;;;;;;;6.65;100.00;101486.94;5055476;28;20039;-72
2023/02/15 09:47:36;;;;;;;29.88;17.23;;;;;;;6.82;100.00;101481.47;5053532;28;20025;-72
2023/02/15 09:50:23;;;;;;;27.77;17.38;;;;;;;7.08;100.00;101482.84;5044077;28;20064;-73
2023/02/15 09:52:54;;;;;;;32.80;19.13;;;;;;;7.25;100.00;101480.94;5039294;28;20083;-72
2023/02/15 09:56:10;;;;;;;28.98;19.13;;;;;;;7.43;100.00;101484.56;5034908;28;20129;-72
2023/02/15 09:58:46;;;;;;;29.00;18.67;;;;;;;7.55;100.00;101485.31;5022948;28;20044;-72
2023/02/15 10:01:34;;;;;;;28.13;16.90;;;;;;;7.67;100.00;101485.28;5001860;28;20394;-72
2023/02/15 10:04:31;;;;;;;29.52;17.60;;;;;;;7.80;100.00;101488.53;5030473;28;20026;-72
2023/02/15 10:07:15;;;;;;;30.90;19.60;;;;;;;7.94;100.00;101489.03;5055139;28;20036;-72
2023/02/15 10:09:46;;;;;;;30.42;18.15;;;;;;;8.07;100.00;101491.44;5054874;28;20032;-72
2023/02/15 10:12:18;;;;;;;32.92;19.77;;;;;;;8.19;100.00;101484.97;5049221;28;20517;-73
2023/02/15 10:15:08;;;;;;;35.30;19.57;;;;;;;8.31;100.00;101498.72;5055079;28;20695;-73
2023/02/15 10:17:56;;;;;;;32.92;20.55;;;;;;;8.46;100.00;101523.84;5029835;28;20089;-73
2023/02/15 10:20:22;;;;;;;30.27;19.65;;;;;;;8.57;100.00;101520.13;5033814;28;20109;-73
2023/02/15 10:22:48;;;;;;;31.67;20.52;;;;;;;8.68;100.00;101513.63;5034050;28;20060;-73
2023/02/15 10:25:16;;;;;;;26.90;17.75;;;;;;;8.79;100.00;101511.84;5034865;28;20561;-73
2023/02/15 10:27:48;;;;;;;31.00;20.40;;;;;;;8.91;100.00;101517.25;5034947;28;20064;-73
2023/02/15 10:30:26;;;;;;;31.65;19.40;;;;;;;9.01;100.00;101514.59;5033777;28;20025;-72
2023/02/15 10:33:02;;;;;;;28.95;17.85;;;;;;;9.14;100.00;101518.91;5034077;28;20033;-72
2023/02/15 10:35:41;;;;;;;36.13;19.98;;;;;;;9.25;100.00;101517.94;5033710;28;20497;-73
2023/02/15 10:38:12;;;;;;;31.00;19.73;;;;;;;9.40;100.00;101511.69;5033834;28;20049;-73
2023/02/15 10:40:59;;;;;;;31.63;20.92;;;;;;;9.50;100.00;101511.81;5043447;28;20064;-73
2023/02/15 10:43:46;;;;;;;29.92;19.67;;;;;;;9.62;100.00;101517.19;5054715;28;20036;-72
2023/02/15 10:46:18;;;;;;;31.95;20.45;;;;;;;9.70;100.00;101510.34;5054700;28;20432;-73
2023/02/15 10:48:51;;;;;;;33.55;21.20;;;;;;;9.82;100.00;101509.03;5049398;28;20087;-73
2023/02/15 10:51:43;;;;;;;33.38;20.83;;;;;;;9.92;100.00;101502.75;5034787;28;20096;-73
2023/02/15 10:54:27;;;;;;;37.95;22.77;;;;;;;10.07;100.00;101507.56;5031724;28;20041;-73
2023/02/15 10:57:18;;;;;;;37.08;22.73;;;;;;;10.19;100.00;101507.38;5034210;28;20030;-73
2023/02/15 11:00:11;;;;;;;39.20;25.10;;;;;;;10.29;100.00;101507.47;5033458;28;20033;-73
2023/02/15 11:02:51;;;;;;;33.13;22.67;;;;;;;10.39;100.00;101515.88;5018064;28;20053;-73
2023/02/15 11:05:39;;;;;;;33.53;21.88;;;;;;;10.48;100.00;101505.09;5019973;28;20030;-73
2023/02/15 11:08:06;;;;;;;30.95;20.17;;;;;;;10.59;100.00;101511.53;5036672;28;20064;-73
2023/02/15 11:10:51;;;;;;;32.17;20.45;;;;;;;10.67;100.00;101514.63;5033742;28;20021;-73
2023/02/15 11:13:18;;;;;;;34.10;21.27;;;;;;;10.79;100.00;101499.69;5038342;28;20048;-73
2023/02/15 11:16:14;;;;;;;31.10;21.13;;;;;;;10.86;100.00;101500.25;5040790;28;20109;-73
2023/02/15 11:18:43;;;;;;;34.80;21.30;;;;;;;10.95;100.00;101505.03;5041954;28;20042;-73
2023/02/15 11:21:13;;;;;;;33.90;20.40;;;;;;;11.04;100.00;101496.16;5037213;28;20083;-73
2023/02/15 11:23:46;;;;;;;33.17;20.77;;;;;;;11.11;100.00;101488.38;5037821;28;20056;-73
2023/02/15 11:26:25;;;;;;;32.72;21.05;;;;;;;11.21;100.00;101485.63;5027352;28;20058;-73
2023/02/15 11:28:57;;;;;;;26.58;18.58;;;;;;;11.30;100.00;101488.72;5055551;28;20104;-73
2023/02/15 11:31:23;;;;;;;34.88;20.77;;;;;;;11.38;100.00;101477.88;5056745;28;20405;-73
2023/02/15 11:33:56;;;;;;;32.15;20.27;;;;;;;11.49;100.00;101475.94;5057847;28;20385;-73
2023/02/15 11:36:25;;;;;;;33.33;21.45;;;;;;;11.57;100.00;101480.97;5056726;28;20041;-73
2023/02/15 11:38:56;;;;;;;35.72;20.70;;;;;;;11.62;100.00;101472.63;5039760;28;20033;-73
2023/02/15 11:41:24;;;;;;;30.20;21.30;;;;;;;11.72;100.00;101469.00;5040540;28;20470;-73
2023/02/15 11:44:10;;;;;;;33.90;21.23;;;;;;;11.82;100.00;101473.75;5023664;28;20033;-73